Amherst, New York
Current Conditions -  °F | °C
As of 11:54 PM on Friday 31 Oct 2014 (Local Time) from KBUF Reporting Station
Light Rain Light Rain  
Wind Chill: 40°   Ceiling: 3000
Heat Index: 43°   Visibility: 7mi
Dew Point: 40°   Wind: 5mph
Humidity: 89%   Direction: 40°NE
Pressure: 29.97"   Gusts: NA
Location:  43.0271°N, 78.7597°W
Report Text: KBUF 010354Z 04004KT 7SM -RA FEW016 BKN030 OVC038 06/04 A2997 RMK AO2 SLP153 P0000 T00610044
Loading
Personal Weather Stations






























Interactive Weather Map
Tropical Storm Tracking
New forecast layout! Learn more

10-Day Weather Forecast

Advertisements
Track Severe Weather on mobile